Time;durP1;ratioP1;P1;durP2;ratioP2;P2;SDS_P1;SDS_P2;PMS_P1;PMS_P2;Temp;Humidity;BMP_temperature;BMP_pressure;BME280_temperature;BME280_humidity;BME280_pressure;Samples;Min_cycle;Max_cycle;Signal;HPM_P1;HPM_P2
2021/03/06 00:01:03;;;;;;;5.22;3.20;;;0.90;98.50;;;;;;4921794;29;20236;-81
2021/03/06 00:03:29;;;;;;;3.40;3.20;;;0.90;98.50;;;;;;4921961;29;20207;-81
2021/03/06 00:05:56;;;;;;;4.00;3.47;;;0.80;98.30;;;;;;4920051;29;20208;-81
2021/03/06 00:08:24;;;;;;;5.50;3.83;;;0.80;98.40;;;;;;4921684;29;20210;-81
2021/03/06 00:10:51;;;;;;;3.78;2.78;;;0.80;98.50;;;;;;4922243;29;20331;-81
2021/03/06 00:13:17;;;;;;;3.80;3.50;;;0.80;98.50;;;;;;4921282;29;20206;-81
2021/03/06 00:15:44;;;;;;;4.38;3.97;;;0.80;98.70;;;;;;4921800;29;20214;-81
2021/03/06 00:18:10;;;;;;;4.07;3.78;;;0.80;98.80;;;;;;4921832;29;20718;-81
2021/03/06 00:20:36;;;;;;;4.32;3.92;;;0.80;98.50;;;;;;4923958;29;20239;-81
2021/03/06 00:23:03;;;;;;;5.15;3.40;;;0.80;98.70;;;;;;4921449;29;20215;-80
2021/03/06 00:25:29;;;;;;;4.25;3.85;;;0.80;98.50;;;;;;4921349;29;20270;-81
2021/03/06 00:27:56;;;;;;;3.78;3.42;;;0.70;98.60;;;;;;4921648;29;20223;-81
2021/03/06 00:30:23;;;;;;;3.95;3.45;;;0.80;98.50;;;;;;4922084;29;20250;-81
2021/03/06 00:32:49;;;;;;;6.05;4.53;;;0.70;98.40;;;;;;4920940;29;20219;-81
2021/03/06 00:35:15;;;;;;;5.75;4.75;;;0.70;98.70;;;;;;4921273;29;20611;-81
2021/03/06 00:37:42;;;;;;;5.25;4.57;;;0.70;98.60;;;;;;4920838;29;20235;-81
2021/03/06 00:40:11;;;;;;;7.57;4.70;;;0.60;98.60;;;;;;4920668;29;20310;-81
2021/03/06 00:42:37;;;;;;;5.03;4.55;;;0.60;98.50;;;;;;4921207;29;20214;-81
2021/03/06 00:45:05;;;;;;;3.70;3.50;;;0.60;98.40;;;;;;4921338;29;20206;-81
2021/03/06 00:47:31;;;;;;;5.75;4.90;;;0.60;98.40;;;;;;4921233;29;20216;-81
2021/03/06 00:49:58;;;;;;;5.03;4.53;;;0.60;98.50;;;;;;4920919;29;20238;-81
2021/03/06 00:52:24;;;;;;;5.47;4.20;;;0.60;98.40;;;;;;4920520;29;20221;-81
2021/03/06 00:54:50;;;;;;;5.60;4.72;;;0.60;98.40;;;;;;4921218;29;20230;-81
2021/03/06 00:57:17;;;;;;;6.45;4.30;;;0.60;98.50;;;;;;4920462;29;20214;-81
2021/03/06 00:59:43;;;;;;;4.97;4.57;;;0.60;98.60;;;;;;4920247;29;20236;-81
2021/03/06 01:02:11;;;;;;;5.70;4.63;;;0.60;98.70;;;;;;4920448;29;20572;-81
2021/03/06 01:04:37;;;;;;;5.70;4.70;;;0.60;98.60;;;;;;4920179;29;20206;-80
2021/03/06 01:07:03;;;;;;;4.75;3.95;;;0.50;98.60;;;;;;4920585;29;20219;-80
2021/03/06 01:09:30;;;;;;;4.85;4.13;;;0.50;98.80;;;;;;4920722;29;20230;-81
2021/03/06 01:11:56;;;;;;;5.40;4.05;;;0.50;98.50;;;;;;4920691;29;20218;-81
2021/03/06 01:14:23;;;;;;;5.70;4.78;;;0.50;98.60;;;;;;4920248;29;20231;-81
2021/03/06 01:16:49;;;;;;;3.88;3.58;;;0.40;98.30;;;;;;4919916;29;20215;-81
2021/03/06 01:19:15;;;;;;;5.32;4.85;;;0.40;98.40;;;;;;4919275;29;20718;-80
2021/03/06 01:21:41;;;;;;;5.15;4.65;;;0.40;98.30;;;;;;4918585;29;20283;-80
2021/03/06 01:24:08;;;;;;;6.18;5.53;;;0.40;98.30;;;;;;4919369;29;20210;-81
2021/03/06 01:26:36;;;;;;;5.00;4.53;;;0.40;98.30;;;;;;4919870;29;20221;-81
2021/03/06 01:29:02;;;;;;;5.15;4.65;;;0.40;98.50;;;;;;4920623;29;20769;-81
2021/03/06 01:31:29;;;;;;;4.90;4.50;;;0.40;98.30;;;;;;4919368;29;20259;-81
2021/03/06 01:33:55;;;;;;;4.60;4.20;;;0.40;98.20;;;;;;4917897;29;20234;-81
2021/03/06 01:36:21;;;;;;;4.30;3.90;;;0.40;98.40;;;;;;4917516;29;20210;-80
2021/03/06 01:38:48;;;;;;;4.80;4.38;;;0.30;98.30;;;;;;4918396;29;20234;-80
2021/03/06 01:41:14;;;;;;;6.43;4.70;;;0.30;98.20;;;;;;4918649;29;20269;-79
2021/03/06 01:43:40;;;;;;;4.88;4.47;;;0.30;98.00;;;;;;4917865;29;20206;-81
2021/03/06 01:46:06;;;;;;;5.50;5.10;;;0.20;98.00;;;;;;4918088;29;20217;-81
2021/03/06 01:48:33;;;;;;;9.88;5.35;;;0.20;98.30;;;;;;4918022;29;20211;-81
2021/03/06 01:50:59;;;;;;;4.80;4.40;;;0.20;98.00;;;;;;4917841;29;20238;-81
2021/03/06 01:53:26;;;;;;;5.93;5.43;;;0.20;98.00;;;;;;4917950;29;20206;-81
2021/03/06 01:55:52;;;;;;;5.32;4.80;;;0.20;98.10;;;;;;4918161;29;20214;-81
2021/03/06 01:58:19;;;;;;;5.47;5.07;;;0.20;97.90;;;;;;4918080;29;20214;-80
2021/03/06 02:00:45;;;;;;;5.38;4.88;;;0.20;97.90;;;;;;4918296;29;20239;-82
2021/03/06 02:03:11;;;;;;;5.80;5.20;;;0.20;97.80;;;;;;4917769;29;20206;-81
2021/03/06 02:05:38;;;;;;;5.57;5.07;;;0.20;97.70;;;;;;4918071;29;20211;-81
2021/03/06 02:08:05;;;;;;;4.68;4.28;;;0.20;97.80;;;;;;4917822;29;20210;-81
2021/03/06 02:10:34;;;;;;;5.13;4.40;;;0.10;97.80;;;;;;4917902;29;20230;-81
2021/03/06 02:13:24;;;;;;;6.07;4.90;;;0.10;97.70;;;;;;4917909;29;20215;-80
2021/03/06 02:16:01;;;;;;;5.07;4.68;;;0.10;97.80;;;;;;4917675;29;20211;-81
2021/03/06 02:18:31;;;;;;;8.40;5.07;;;0.10;97.60;;;;;;4918043;29;20552;-80
2021/03/06 02:21:03;;;;;;;5.78;5.28;;;0.10;97.80;;;;;;4917776;29;20226;-81
2021/03/06 02:23:59;;;;;;;7.53;4.68;;;0.10;97.60;;;;;;4917402;29;20242;-81
2021/03/06 02:26:39;;;;;;;5.43;4.88;;;0.00;97.50;;;;;;4917989;29;20215;-81
2021/03/06 02:29:37;;;;;;;5.50;5.00;;;0.00;97.70;;;;;;4917787;29;20234;-81
2021/03/06 02:32:09;;;;;;;5.50;5.10;;;0.00;97.50;;;;;;4917589;29;20297;-81
2021/03/06 02:34:39;;;;;;;4.90;4.50;;;0.00;97.30;;;;;;4917615;29;20289;-81
2021/03/06 02:37:08;;;;;;;4.05;3.75;;;0.00;97.40;;;;;;4917905;29;20230;-81
2021/03/06 02:39:38;;;;;;;5.25;4.63;;;-0.10;97.30;;;;;;4917814;29;20249;-81
2021/03/06 02:42:06;;;;;;;5.13;4.40;;;-0.10;97.20;;;;;;4917244;29;20216;-81
2021/03/06 02:44:34;;;;;;;5.18;4.68;;;-0.10;97.00;;;;;;4917144;29;20207;-81
2021/03/06 02:47:02;;;;;;;4.70;4.25;;;-0.10;97.20;;;;;;4919751;29;20211;-81
2021/03/06 02:49:28;;;;;;;4.82;4.43;;;-0.20;97.20;;;;;;4921049;29;20238;-81
2021/03/06 02:51:55;;;;;;;4.32;3.92;;;-0.20;97.20;;;;;;4921353;29;20214;-81
2021/03/06 02:54:21;;;;;;;5.32;4.85;;;-0.10;96.90;;;;;;4921676;29;20262;-81
2021/03/06 02:56:48;;;;;;;4.10;3.80;;;-0.10;96.90;;;;;;4921384;29;20214;-80
2021/03/06 02:59:28;;;;;;;5.50;5.10;;;-0.10;97.00;;;;;;4920915;29;20271;-81
2021/03/06 03:02:01;;;;;;;5.60;5.07;;;-0.20;97.00;;;;;;4920311;29;20214;-81
2021/03/06 03:04:36;;;;;;;6.03;5.10;;;-0.10;97.10;;;;;;4920561;29;20187;-81
2021/03/06 03:07:08;;;;;;;4.85;4.30;;;-0.10;97.10;;;;;;4920916;29;20214;-81
2021/03/06 03:09:39;;;;;;;5.50;5.00;;;-0.20;97.10;;;;;;4921245;29;20293;-81
2021/03/06 03:12:12;;;;;;;4.50;4.20;;;-0.20;97.00;;;;;;4921389;29;20209;-81
2021/03/06 03:14:45;;;;;;;5.70;4.30;;;-0.20;97.00;;;;;;4921749;29;20373;-80
2021/03/06 03:17:15;;;;;;;5.68;5.18;;;-0.20;97.00;;;;;;4921244;29;20246;-81
2021/03/06 03:19:50;;;;;;;4.30;4.00;;;-0.20;97.00;;;;;;4920813;29;20234;-81
2021/03/06 03:22:20;;;;;;;4.43;4.10;;;-0.20;97.00;;;;;;4919861;29;20656;-81
2021/03/06 03:24:50;;;;;;;4.78;4.25;;;-0.20;97.00;;;;;;4919610;29;20262;-80
2021/03/06 03:27:17;;;;;;;5.53;5.05;;;-0.30;96.90;;;;;;4920856;29;20259;-81
2021/03/06 03:29:45;;;;;;;5.45;4.95;;;-0.30;96.70;;;;;;4920483;29;20242;-81
2021/03/06 03:32:12;;;;;;;5.57;4.50;;;-0.40;96.70;;;;;;4920051;29;20210;-81
2021/03/06 03:34:40;;;;;;;4.45;4.15;;;-0.30;96.40;;;;;;4920328;29;20316;-81
2021/03/06 03:37:11;;;;;;;7.47;3.90;;;-0.30;96.50;;;;;;4920941;29;20629;-81
2021/03/06 03:39:39;;;;;;;5.15;3.75;;;-0.30;96.40;;;;;;4920777;29;20235;-81
2021/03/06 03:42:06;;;;;;;6.07;3.65;;;-0.40;96.30;;;;;;4920656;29;20210;-80
2021/03/06 03:44:34;;;;;;;4.15;3.85;;;-0.30;96.20;;;;;;4920682;29;20210;-78
2021/03/06 03:47:02;;;;;;;5.90;4.50;;;-0.30;95.90;;;;;;4920559;29;20214;-78
2021/03/06 03:49:28;;;;;;;5.80;4.80;;;-0.30;96.00;;;;;;4920598;29;20249;-79
2021/03/06 03:51:55;;;;;;;5.93;4.20;;;-0.30;96.00;;;;;;4920336;29;20222;-78
2021/03/06 03:54:22;;;;;;;5.00;4.60;;;-0.40;96.10;;;;;;4920592;29;20222;-79
2021/03/06 03:56:49;;;;;;;4.45;3.97;;;-0.40;96.00;;;;;;4920418;29;20229;-78
2021/03/06 03:59:16;;;;;;;5.45;4.65;;;-0.40;95.80;;;;;;4919820;29;20725;-78
2021/03/06 04:01:43;;;;;;;4.75;4.35;;;-0.40;95.90;;;;;;4920403;29;20225;-79
2021/03/06 04:04:23;;;;;;;5.40;4.90;;;-0.40;95.90;;;;;;4921055;29;20206;-78
2021/03/06 04:06:50;;;;;;;6.65;3.92;;;-0.30;96.00;;;;;;4920180;29;20649;-78
2021/03/06 04:09:16;;;;;;;5.10;4.40;;;-0.30;96.10;;;;;;4920416;29;20231;-78
2021/03/06 04:11:43;;;;;;;4.78;4.38;;;-0.40;95.80;;;;;;4920136;29;20218;-78
2021/03/06 04:14:09;;;;;;;5.55;5.05;;;-0.40;95.30;;;;;;4921779;29;20223;-77
2021/03/06 04:16:36;;;;;;;3.40;3.20;;;-0.50;95.50;;;;;;4928196;29;20211;-77
2021/03/06 04:19:02;;;;;;;5.22;4.72;;;-0.50;95.60;;;;;;4929496;29;20211;-77
2021/03/06 04:21:29;;;;;;;4.03;3.72;;;-0.60;95.60;;;;;;4929322;29;20217;-78
2021/03/06 04:23:55;;;;;;;5.43;4.00;;;-0.50;95.50;;;;;;4928113;29;20274;-78
2021/03/06 04:26:21;;;;;;;4.53;4.13;;;-0.60;95.60;;;;;;4927494;29;20274;-78
2021/03/06 04:28:48;;;;;;;4.15;3.78;;;-0.60;95.60;;;;;;4926645;29;20217;-77
2021/03/06 04:31:14;;;;;;;7.47;5.05;;;-0.60;95.60;;;;;;4927597;29;20217;-78
2021/03/06 04:33:41;;;;;;;3.97;3.67;;;-0.60;95.70;;;;;;4928902;29;20688;-77
2021/03/06 04:36:07;;;;;;;5.72;5.13;;;-0.70;95.60;;;;;;4930271;29;20218;-76
2021/03/06 04:38:34;;;;;;;4.15;3.80;;;-0.70;95.60;;;;;;4923032;29;20222;-77
2021/03/06 04:41:00;;;;;;;4.03;3.72;;;-0.70;95.70;;;;;;4919483;29;20339;-78
2021/03/06 04:43:26;;;;;;;4.63;4.22;;;-0.70;95.70;;;;;;4918484;29;20218;-78
2021/03/06 04:45:54;;;;;;;6.00;5.38;;;-0.70;95.70;;;;;;4918912;29;20211;-78
2021/03/06 04:48:20;;;;;;;4.90;4.50;;;-0.80;95.60;;;;;;4918635;29;20221;-78
2021/03/06 04:50:47;;;;;;;7.70;4.90;;;-0.80;95.60;;;;;;4917831;29;20234;-77
2021/03/06 04:53:13;;;;;;;5.85;5.25;;;-0.90;95.60;;;;;;4916857;29;20274;-77
2021/03/06 04:55:39;;;;;;;5.78;4.97;;;-1.00;95.70;;;;;;4917035;29;20241;-77
2021/03/06 04:58:05;;;;;;;5.68;4.18;;;-0.90;95.80;;;;;;4916942;29;20233;-77
2021/03/06 05:00:32;;;;;;;4.97;4.47;;;-0.90;95.80;;;;;;4916900;29;20237;-77
2021/03/06 05:02:59;;;;;;;4.13;3.80;;;-0.90;95.80;;;;;;4916761;29;20214;-77
2021/03/06 05:05:25;;;;;;;5.70;5.20;;;-0.80;95.90;;;;;;4916880;29;20209;-76
2021/03/06 05:07:52;;;;;;;5.05;4.65;;;-0.90;95.90;;;;;;4916785;29;20218;-77
2021/03/06 05:10:21;;;;;;;4.30;3.90;;;-0.90;96.00;;;;;;4915700;29;20230;-77
2021/03/06 05:12:47;;;;;;;5.10;4.68;;;-0.90;96.10;;;;;;4916686;29;20309;-76
2021/03/06 05:15:14;;;;;;;5.13;4.63;;;-0.90;96.10;;;;;;4916643;29;20261;-77
2021/03/06 05:17:40;;;;;;;4.38;3.97;;;-0.90;96.10;;;;;;4916607;29;20206;-77
2021/03/06 05:20:08;;;;;;;5.35;4.85;;;-0.90;96.10;;;;;;4916353;29;20238;-77
2021/03/06 05:22:34;;;;;;;4.72;4.32;;;-0.90;96.10;;;;;;4916199;29;20581;-77
2021/03/06 05:25:01;;;;;;;4.70;4.40;;;-1.00;96.00;;;;;;4916228;29;20281;-76
2021/03/06 05:27:27;;;;;;;4.25;3.85;;;-1.00;96.10;;;;;;4916449;29;20207;-77
2021/03/06 05:29:54;;;;;;;4.70;4.30;;;-1.00;96.20;;;;;;4920348;29;20285;-76
2021/03/06 05:32:20;;;;;;;5.30;4.90;;;-1.00;96.20;;;;;;4916101;29;20836;-77
2021/03/06 05:34:46;;;;;;;5.53;5.10;;;-1.00;96.30;;;;;;4916203;29;20237;-77
2021/03/06 05:37:13;;;;;;;5.80;5.30;;;-1.10;96.20;;;;;;4916125;29;20225;-76
2021/03/06 05:39:39;;;;;;;7.25;4.50;;;-1.10;96.30;;;;;;4915947;29;20238;-76
2021/03/06 05:42:08;;;;;;;4.20;3.90;;;-1.10;96.30;;;;;;4915956;29;20214;-76
2021/03/06 05:44:35;;;;;;;5.55;5.00;;;-1.10;96.30;;;;;;4916056;29;20210;-76
2021/03/06 05:47:02;;;;;;;4.65;4.22;;;-1.10;96.40;;;;;;4915952;29;20697;-76
2021/03/06 05:49:28;;;;;;;5.53;4.40;;;-1.10;96.30;;;;;;4915815;29;20246;-77
2021/03/06 05:51:56;;;;;;;6.05;5.45;;;-1.10;96.40;;;;;;4915716;29;20224;-76
2021/03/06 05:54:26;;;;;;;5.55;4.63;;;-1.10;96.50;;;;;;4915693;29;20226;-76
2021/03/06 05:56:54;;;;;;;4.50;4.10;;;-1.10;96.50;;;;;;4916099;29;20221;-76
2021/03/06 05:59:22;;;;;;;6.05;4.60;;;-1.10;96.50;;;;;;4915698;29;20238;-76
2021/03/06 06:01:49;;;;;;;7.78;5.32;;;-1.20;96.60;;;;;;4915463;29;20222;-76
2021/03/06 06:04:17;;;;;;;4.88;4.47;;;-1.20;96.60;;;;;;4915787;29;20202;-76
2021/03/06 06:06:44;;;;;;;6.93;5.97;;;-1.10;96.60;;;;;;4915590;29;20217;-76
2021/03/06 06:09:10;;;;;;;5.18;4.68;;;-1.10;96.50;;;;;;4915896;29;20233;-77
2021/03/06 06:11:37;;;;;;;6.07;4.35;;;-1.10;96.50;;;;;;4915584;29;20221;-76
2021/03/06 06:14:06;;;;;;;4.22;3.92;;;-1.10;96.60;;;;;;4915646;29;20222;-76
2021/03/06 06:16:34;;;;;;;5.90;4.93;;;-1.00;96.60;;;;;;4915784;29;20210;-76
2021/03/06 06:19:01;;;;;;;4.60;4.25;;;-1.00;96.50;;;;;;4915573;29;20222;-76
2021/03/06 06:21:41;;;;;;;4.03;3.72;;;-1.00;96.50;;;;;;4916779;29;20709;-76
2021/03/06 06:24:09;;;;;;;3.85;3.45;;;-1.00;96.50;;;;;;4912971;29;20244;-76
2021/03/06 06:26:37;;;;;;;7.35;4.25;;;-1.00;96.40;;;;;;4919573;29;20303;-76
2021/03/06 06:29:04;;;;;;;6.10;4.82;;;-1.00;96.40;;;;;;4919264;29;20218;-77
2021/03/06 06:31:31;;;;;;;4.55;4.15;;;-1.10;96.40;;;;;;4919125;29;20210;-77
2021/03/06 06:33:57;;;;;;;4.88;4.47;;;-1.20;96.40;;;;;;4919169;29;20261;-76
2021/03/06 06:36:31;;;;;;;4.80;4.43;;;-1.20;96.60;;;;;;4919180;29;20214;-76
2021/03/06 06:38:58;;;;;;;4.10;3.70;;;-1.10;96.60;;;;;;4919318;29;20217;-76
2021/03/06 06:41:25;;;;;;;4.70;4.18;;;-1.00;96.50;;;;;;4918843;29;20218;-76
2021/03/06 06:43:52;;;;;;;4.65;4.25;;;-1.00;96.40;;;;;;4919161;29;20210;-75
2021/03/06 06:46:28;;;;;;;4.43;4.03;;;-0.80;96.60;;;;;;4919015;29;20741;-76
2021/03/06 06:48:58;;;;;;;4.82;4.40;;;-0.80;96.60;;;;;;4919126;29;20218;-76
2021/03/06 06:51:24;;;;;;;5.28;4.78;;;-0.70;96.50;;;;;;4918770;29;20218;-76
2021/03/06 06:53:50;;;;;;;3.90;3.60;;;-0.70;96.50;;;;;;4922697;29;20211;-77
2021/03/06 06:56:23;;;;;;;6.72;4.57;;;-0.60;96.60;;;;;;4919112;29;20261;-76
2021/03/06 06:58:50;;;;;;;6.82;6.15;;;-0.50;96.70;;;;;;4934214;29;20215;-77
2021/03/06 07:01:33;;;;;;;6.32;5.72;;;-0.40;96.60;;;;;;4936299;29;20211;-79
2021/03/06 07:04:01;;;;;;;5.63;4.32;;;-0.30;96.60;;;;;;4935959;29;20230;-78
2021/03/06 07:06:28;;;;;;;5.85;5.10;;;-0.30;96.50;;;;;;4935967;29;20217;-78
2021/03/06 07:09:08;;;;;;;5.03;4.63;;;-0.10;96.60;;;;;;4935222;29;20842;-78
2021/03/06 07:11:35;;;;;;;5.97;5.47;;;-0.10;96.70;;;;;;4935557;29;20763;-78
2021/03/06 07:14:01;;;;;;;6.40;5.00;;;0.00;96.60;;;;;;4935995;29;20268;-78
2021/03/06 07:17:01;;;;;;;6.07;4.40;;;0.00;96.60;;;;;;4935525;29;20214;-78
2021/03/06 07:19:30;;;;;;;8.43;4.75;;;0.20;96.50;;;;;;4935561;29;20246;-78
2021/03/06 07:21:57;;;;;;;7.15;5.72;;;0.20;96.40;;;;;;4934746;29;20344;-78
2021/03/06 07:24:24;;;;;;;9.43;6.10;;;0.30;96.40;;;;;;4935877;29;20203;-79
2021/03/06 07:26:52;;;;;;;7.30;5.18;;;0.40;96.40;;;;;;4935622;29;20725;-78
2021/03/06 07:29:19;;;;;;;8.27;6.82;;;0.50;96.20;;;;;;4935722;29;20260;-78
2021/03/06 07:31:48;;;;;;;10.60;6.22;;;0.60;96.10;;;;;;4935478;29;20213;-78
2021/03/06 07:34:18;;;;;;;6.35;5.47;;;0.70;96.20;;;;;;4927069;29;20230;-78
2021/03/06 07:36:46;;;;;;;6.00;5.50;;;0.70;96.20;;;;;;4935203;29;20199;-78
2021/03/06 07:39:14;;;;;;;8.70;5.93;;;0.80;96.00;;;;;;4934671;29;20234;-78
2021/03/06 07:41:43;;;;;;;7.60;5.38;;;0.90;96.40;;;;;;4933145;29;20215;-78
2021/03/06 07:44:13;;;;;;;5.45;5.00;;;1.00;96.90;;;;;;4935399;29;20220;-78
2021/03/06 07:46:39;;;;;;;7.60;5.72;;;1.00;97.00;;;;;;4935396;29;20214;-78
2021/03/06 07:49:13;;;;;;;6.38;5.88;;;1.10;97.00;;;;;;4928756;29;20303;-78
2021/03/06 07:51:44;;;;;;;5.78;5.30;;;1.20;96.70;;;;;;4934628;29;20208;-78
2021/03/06 07:54:13;;;;;;;6.55;5.47;;;1.40;96.30;;;;;;4929783;29;20218;-78
2021/03/06 07:56:40;;;;;;;5.30;4.80;;;1.50;96.40;;;;;;4930595;29;20669;-78
2021/03/06 07:59:06;;;;;;;9.05;5.40;;;1.50;96.30;;;;;;4928242;29;20239;-79
2021/03/06 08:01:34;;;;;;;7.40;6.45;;;1.70;96.00;;;;;;4934421;29;20210;-78
2021/03/06 08:04:01;;;;;;;6.72;5.47;;;1.70;95.70;;;;;;4932765;29;20218;-78
2021/03/06 08:06:28;;;;;;;6.53;6.03;;;1.80;95.50;;;;;;4926885;29;20218;-78
2021/03/06 08:09:06;;;;;;;7.30;6.63;;;1.90;95.20;;;;;;4933938;29;20210;-79
2021/03/06 08:11:41;;;;;;;6.35;5.45;;;1.90;95.30;;;;;;4934237;29;20217;-78
2021/03/06 08:14:27;;;;;;;7.68;6.97;;;2.00;95.30;;;;;;4921493;29;20247;-78
2021/03/06 08:16:53;;;;;;;7.32;6.57;;;2.00;95.30;;;;;;4933557;29;20217;-78
2021/03/06 08:19:31;;;;;;;7.50;6.78;;;2.00;95.20;;;;;;4934206;29;20227;-79
2021/03/06 08:22:17;;;;;;;7.38;6.05;;;2.00;95.10;;;;;;4932945;29;20213;-78
2021/03/06 08:24:45;;;;;;;6.55;5.80;;;2.10;95.10;;;;;;4922708;29;20762;-78
2021/03/06 08:27:22;;;;;;;6.95;5.70;;;2.20;95.10;;;;;;4927715;29;20211;-77
2021/03/06 08:29:50;;;;;;;6.88;6.35;;;2.30;95.10;;;;;;4917494;29;20231;-77
2021/03/06 08:32:30;;;;;;;6.10;5.53;;;2.40;94.60;;;;;;4917837;29;20220;-79
2021/03/06 08:34:57;;;;;;;5.97;5.40;;;2.50;94.30;;;;;;4933309;29;20239;-78
2021/03/06 08:37:35;;;;;;;5.88;5.25;;;2.60;94.70;;;;;;4926349;29;20221;-77
2021/03/06 08:40:08;;;;;;;5.65;5.15;;;2.70;94.80;;;;;;4917125;29;20713;-76
2021/03/06 08:42:36;;;;;;;6.35;5.70;;;2.80;94.60;;;;;;4916954;29;20685;-77
2021/03/06 08:45:07;;;;;;;6.80;5.95;;;2.80;94.50;;;;;;4918011;29;20585;-79
2021/03/06 08:47:36;;;;;;;7.00;5.82;;;2.90;94.20;;;;;;4917536;29;20216;-77
2021/03/06 08:50:05;;;;;;;6.00;5.47;;;2.90;93.80;;;;;;4916972;29;20261;-77
2021/03/06 08:52:32;;;;;;;7.43;6.10;;;3.00;93.90;;;;;;4916829;29;20212;-77
2021/03/06 08:54:58;;;;;;;5.70;5.22;;;3.10;93.90;;;;;;4916942;29;20226;-77
2021/03/06 08:57:31;;;;;;;6.10;5.50;;;3.10;93.60;;;;;;4916847;29;20240;-77
2021/03/06 08:59:59;;;;;;;7.18;6.50;;;3.20;93.80;;;;;;4916982;29;20232;-77
2021/03/06 09:02:30;;;;;;;6.30;5.40;;;3.30;93.60;;;;;;4916699;29;20207;-76
2021/03/06 09:05:09;;;;;;;6.00;5.40;;;3.40;93.60;;;;;;4916899;29;20202;-77
2021/03/06 09:07:38;;;;;;;5.03;4.57;;;3.50;94.90;;;;;;4919741;29;20696;-77
2021/03/06 09:10:29;;;;;;;7.25;5.20;;;3.70;93.20;;;;;;4922911;29;20241;-80
2021/03/06 09:12:59;;;;;;;5.28;4.80;;;3.80;92.80;;;;;;4930380;29;20243;-79
2021/03/06 09:15:32;;;;;;;5.80;5.28;;;3.90;93.00;;;;;;4930707;29;20226;-79
2021/03/06 09:17:59;;;;;;;6.07;5.22;;;4.00;92.40;;;;;;4931727;29;20212;-79
2021/03/06 09:20:27;;;;;;;5.13;4.65;;;4.20;91.10;;;;;;4932314;29;20256;-79
2021/03/06 09:22:53;;;;;;;5.28;4.85;;;4.20;90.60;;;;;;4931833;29;20238;-80
2021/03/06 09:25:31;;;;;;;6.40;5.80;;;4.30;90.60;;;;;;4931771;29;20211;-80
2021/03/06 09:27:59;;;;;;;6.00;5.40;;;4.30;90.90;;;;;;4917020;29;20206;-80
2021/03/06 09:30:28;;;;;;;4.85;4.45;;;4.30;91.10;;;;;;4916865;29;20226;-80
2021/03/06 09:32:55;;;;;;;4.97;4.43;;;4.40;89.80;;;;;;4912015;29;20712;-79
2021/03/06 09:35:22;;;;;;;5.93;5.43;;;4.60;89.20;;;;;;4924192;29;20219;-79
2021/03/06 09:38:06;;;;;;;5.00;4.47;;;4.60;88.40;;;;;;4918041;29;20270;-80
2021/03/06 09:40:38;;;;;;;5.30;4.80;;;4.70;89.50;;;;;;4925113;29;20712;-79
2021/03/06 09:43:05;;;;;;;5.00;4.50;;;4.70;90.00;;;;;;4922505;29;20202;-79
2021/03/06 09:45:32;;;;;;;4.43;4.05;;;4.80;88.20;;;;;;4919731;29;20195;-81
2021/03/06 09:48:11;;;;;;;4.75;4.30;;;4.90;87.20;;;;;;4926251;29;20211;-82
2021/03/06 09:50:38;;;;;;;6.20;5.80;;;4.90;87.00;;;;;;4920585;29;20226;-79
2021/03/06 09:53:29;;;;;;;4.10;3.72;;;5.00;87.80;;;;;;4922154;29;20207;-81
2021/03/06 09:56:06;;;;;;;9.45;6.57;;;5.10;87.30;;;;;;4901414;29;20237;-81
2021/03/06 09:58:34;;;;;;;5.40;5.00;;;5.20;87.10;;;;;;4918514;29;20282;-81
2021/03/06 10:01:15;;;;;;;4.53;4.22;;;5.30;86.30;;;;;;4916660;29;20235;-80
2021/03/06 10:03:42;;;;;;;4.05;3.70;;;5.30;86.70;;;;;;4916278;29;20210;-80
2021/03/06 10:06:10;;;;;;;8.43;4.50;;;5.30;86.20;;;;;;4917072;29;20199;-81
2021/03/06 10:08:42;;;;;;;4.95;4.45;;;5.40;84.00;;;;;;4910723;29;20211;-83
2021/03/06 10:11:09;;;;;;;4.88;4.50;;;5.60;85.70;;;;;;4905761;29;20247;-83
2021/03/06 10:13:36;;;;;;;6.07;5.47;;;5.60;86.10;;;;;;4906305;29;20211;-83
2021/03/06 10:16:03;;;;;;;5.20;4.70;;;5.80;86.00;;;;;;4905757;29;20730;-82
2021/03/06 10:18:35;;;;;;;7.10;5.75;;;5.90;84.30;;;;;;4905350;29;20211;-83
2021/03/06 10:21:10;;;;;;;5.38;4.97;;;6.00;84.00;;;;;;4905110;29;20227;-81
2021/03/06 10:23:36;;;;;;;5.40;5.00;;;6.20;83.30;;;;;;4907751;29;20222;-80
2021/03/06 10:26:19;;;;;;;5.03;4.53;;;6.30;83.60;;;;;;4908555;29;20235;-82
2021/03/06 10:28:49;;;;;;;6.18;5.57;;;6.40;82.00;;;;;;4909798;29;20214;-79
2021/03/06 10:31:33;;;;;;;4.88;4.47;;;6.40;79.70;;;;;;4906507;29;20215;-83
2021/03/06 10:34:13;;;;;;;4.68;4.22;;;6.40;80.50;;;;;;4907046;29;20239;-82
2021/03/06 10:36:39;;;;;;;4.57;4.20;;;6.40;78.50;;;;;;4907069;29;20211;-82
2021/03/06 10:39:18;;;;;;;4.00;3.70;;;6.50;77.80;;;;;;4906367;29;20679;-82
2021/03/06 10:41:45;;;;;;;5.15;4.65;;;6.50;78.10;;;;;;4907315;29;20213;-80
2021/03/06 10:44:12;;;;;;;6.90;5.22;;;6.60;79.00;;;;;;4906120;29;20218;-82
2021/03/06 10:46:38;;;;;;;5.03;4.63;;;6.70;79.70;;;;;;4906028;29;20238;-81
2021/03/06 10:49:06;;;;;;;5.43;4.90;;;6.80;78.30;;;;;;4904209;29;20219;-82
2021/03/06 10:51:45;;;;;;;4.85;4.55;;;7.00;76.40;;;;;;4948007;23;20245;-82
2021/03/06 10:54:12;;;;;;;4.30;3.90;;;7.10;73.50;;;;;;4938633;29;20221;-82
2021/03/06 10:56:39;;;;;;;8.57;5.03;;;7.30;73.00;;;;;;4940799;29;20512;-82
2021/03/06 10:59:05;;;;;;;4.63;4.25;;;7.40;70.40;;;;;;4940745;29;20206;-82
2021/03/06 11:01:43;;;;;;;5.03;4.63;;;7.50;71.10;;;;;;4941011;29;20233;-83
2021/03/06 11:04:23;;;;;;;4.22;3.88;;;7.60;71.40;;;;;;4941637;29;20206;-81
2021/03/06 11:06:54;;;;;;;4.25;3.95;;;7.80;73.30;;;;;;4943251;29;20249;-82
2021/03/06 11:09:25;;;;;;;5.30;4.90;;;8.10;74.60;;;;;;4946714;29;20229;-82
2021/03/06 11:11:51;;;;;;;5.28;4.88;;;8.50;70.80;;;;;;4951115;29;20216;-81
2021/03/06 11:14:25;;;;;;;3.90;3.60;;;9.10;67.90;;;;;;4952884;29;20261;-81
2021/03/06 11:16:53;;;;;;;4.00;3.70;;;9.80;70.60;;;;;;4952583;29;20978;-81
2021/03/06 11:19:20;;;;;;;4.27;3.77;;;10.60;65.40;;;;;;4951968;29;20455;-81
2021/03/06 11:21:47;;;;;;;4.27;3.87;;;11.30;62.90;;;;;;4953284;29;20845;-81
2021/03/06 11:24:13;;;;;;;3.77;3.47;;;11.80;57.10;;;;;;4954090;29;20452;-81
2021/03/06 11:26:39;;;;;;;5.10;4.60;;;12.40;57.20;;;;;;4954187;29;20453;-80
2021/03/06 11:29:06;;;;;;;4.33;3.97;;;13.10;56.10;;;;;;4953430;29;20454;-81
2021/03/06 11:31:33;;;;;;;4.20;4.00;;;13.70;52.80;;;;;;4952712;29;20470;-81
2021/03/06 11:34:00;;;;;;;4.77;4.37;;;14.20;52.30;;;;;;4953394;29;20516;-80
2021/03/06 11:36:26;;;;;;;4.90;4.50;;;14.60;48.60;;;;;;4951992;29;20493;-80
2021/03/06 11:38:52;;;;;;;4.20;3.90;;;15.10;48.50;;;;;;4950775;29;20459;-80
2021/03/06 11:41:19;;;;;;;4.50;4.10;;;15.50;43.20;;;;;;4952094;29;20473;-80
2021/03/06 11:43:45;;;;;;;4.13;3.73;;;15.90;43.40;;;;;;4949655;29;20472;-80
2021/03/06 11:46:11;;;;;;;4.43;4.03;;;16.00;42.20;;;;;;4949430;29;20450;-81
2021/03/06 11:48:37;;;;;;;3.90;3.60;;;16.40;42.50;;;;;;4948833;29;20459;-80
2021/03/06 11:51:05;;;;;;;3.60;3.30;;;16.70;39.40;;;;;;4948662;29;20494;-80
2021/03/06 11:53:31;;;;;;;4.50;4.10;;;16.90;40.80;;;;;;4946891;29;20696;-80
2021/03/06 11:55:57;;;;;;;3.77;3.50;;;17.00;39.70;;;;;;4948873;29;20492;-81
2021/03/06 11:58:23;;;;;;;4.60;4.30;;;17.30;39.80;;;;;;4947812;29;20462;-79
2021/03/06 12:00:50;;;;;;;3.17;2.97;;;17.70;39.70;;;;;;4947329;29;20483;-81
2021/03/06 12:03:16;;;;;;;3.60;3.40;;;18.20;37.60;;;;;;4948086;29;20451;-80
2021/03/06 12:05:42;;;;;;;3.60;3.30;;;18.60;35.60;;;;;;4944303;29;20453;-80
2021/03/06 12:08:09;;;;;;;3.47;3.27;;;19.00;34.60;;;;;;4944672;29;20458;-79
2021/03/06 12:10:35;;;;;;;3.90;3.60;;;19.40;34.40;;;;;;4943626;29;20477;-80
2021/03/06 12:13:01;;;;;;;3.27;3.00;;;19.60;32.30;;;;;;4947725;29;20460;-80
2021/03/06 12:15:28;;;;;;;4.00;3.70;;;19.50;29.40;;;;;;4944275;29;20500;-79
2021/03/06 12:17:54;;;;;;;3.20;3.00;;;19.00;28.90;;;;;;4945337;29;20461;-80
2021/03/06 12:20:21;;;;;;;3.40;3.20;;;19.20;31.00;;;;;;4943976;29;20482;-80
2021/03/06 12:22:47;;;;;;;4.30;4.00;;;19.50;31.10;;;;;;4944671;29;20475;-80
2021/03/06 12:25:16;;;;;;;3.30;3.10;;;19.50;29.80;;;;;;4944616;29;20459;-81
2021/03/06 12:27:43;;;;;;;3.10;2.90;;;19.60;30.00;;;;;;4945607;29;20593;-81
2021/03/06 12:30:11;;;;;;;3.40;3.20;;;20.00;29.90;;;;;;4943698;29;20477;-81
2021/03/06 12:32:38;;;;;;;3.40;3.17;;;20.30;29.20;;;;;;4941955;29;20457;-80
2021/03/06 12:35:06;;;;;;;3.30;3.10;;;20.70;29.80;;;;;;4942722;29;20490;-81
2021/03/06 12:37:33;;;;;;;3.30;3.10;;;21.30;29.30;;;;;;4941767;29;20454;-81
2021/03/06 12:40:00;;;;;;;3.30;3.00;;;21.80;28.40;;;;;;4941652;29;20482;-81
2021/03/06 12:42:27;;;;;;;3.23;3.03;;;22.20;28.40;;;;;;4941261;29;20459;-81
2021/03/06 12:44:53;;;;;;;3.83;3.53;;;22.70;27.40;;;;;;4943004;29;20944;-81
2021/03/06 12:47:19;;;;;;;3.87;3.57;;;23.00;27.10;;;;;;4945163;29;20452;-81
2021/03/06 12:49:46;;;;;;;4.43;4.10;;;23.20;27.80;;;;;;4945527;29;21011;-81
2021/03/06 12:52:12;;;;;;;4.20;3.90;;;23.50;27.20;;;;;;4945844;29;20467;-81
2021/03/06 12:54:38;;;;;;;3.70;3.40;;;23.60;27.40;;;;;;4945840;29;20490;-81
2021/03/06 12:57:05;;;;;;;4.20;3.90;;;23.90;26.00;;;;;;4946564;29;20489;-81
2021/03/06 12:59:36;;;;;;;4.63;4.23;;;23.90;25.80;;;;;;4942890;29;20457;-86
2021/03/06 13:02:02;;;;;;;4.97;4.67;;;24.10;35.80;;;;;;4935537;29;20458;-83